Time;durP1;ratioP1;P1;durP2;ratioP2;P2;SDS_P1;SDS_P2;PMS_P1;PMS_P2;Temp;Humidity;BMP_temperature;BMP_pressure;BME280_temperature;BME280_humidity;BME280_pressure;Samples;Min_cycle;Max_cycle;Signal;HPM_P1;HPM_P2
2023/12/27 00:02:10;;;;;;;2.55;1.98;;;;;;;8.87;89.58;97293.38;4955614;28;20120;-75
2023/12/27 00:04:39;;;;;;;4.47;2.55;;;;;;;8.90;89.74;97293.09;4955425;28;20047;-76
2023/12/27 00:07:06;;;;;;;2.45;1.98;;;;;;;8.91;89.74;97294.72;4955549;29;20521;-76
2023/12/27 00:09:34;;;;;;;4.70;2.05;;;;;;;8.89;87.85;97294.03;4955745;28;20094;-76
2023/12/27 00:12:02;;;;;;;5.93;2.40;;;;;;;8.88;87.84;97305.44;4955423;29;20047;-76
2023/12/27 00:14:29;;;;;;;3.80;2.22;;;;;;;8.88;88.86;97305.44;4955528;29;20055;-75
2023/12/27 00:16:57;;;;;;;2.45;1.83;;;;;;;8.87;89.24;97298.59;4955687;28;20496;-75
2023/12/27 00:19:25;;;;;;;5.07;2.22;;;;;;;8.86;88.04;97304.78;4955723;29;20057;-76
2023/12/27 00:21:53;;;;;;;2.80;2.00;;;;;;;8.82;86.60;97308.63;4955257;29;20059;-76
2023/12/27 00:24:21;;;;;;;4.75;2.58;;;;;;;8.82;87.25;97308.63;4955430;29;20051;-75
2023/12/27 00:26:49;;;;;;;2.63;2.28;;;;;;;8.85;88.62;97305.72;4955777;28;20058;-75
2023/12/27 00:29:16;;;;;;;4.18;1.95;;;;;;;8.83;87.27;97307.66;4955492;28;20130;-75
2023/12/27 00:31:43;;;;;;;2.38;2.00;;;;;;;8.81;87.01;97304.38;4955414;28;20058;-76
2023/12/27 00:34:11;;;;;;;4.82;2.38;;;;;;;8.81;87.44;97312.19;4955539;29;20047;-75
2023/12/27 00:36:39;;;;;;;3.67;2.45;;;;;;;8.79;87.74;97301.97;4955232;28;20073;-76
2023/12/27 00:39:10;;;;;;;2.75;2.28;;;;;;;8.77;86.86;97300.50;4954894;28;20543;-76
2023/12/27 00:41:37;;;;;;;3.90;2.40;;;;;;;8.73;85.54;97301.75;4954733;29;20531;-75
2023/12/27 00:44:05;;;;;;;4.88;2.13;;;;;;;8.66;85.05;97297.16;4955231;29;20429;-75
2023/12/27 00:46:33;;;;;;;3.38;2.20;;;;;;;8.64;86.04;97298.28;4954867;29;20497;-75
2023/12/27 00:49:00;;;;;;;5.32;2.60;;;;;;;8.65;86.57;97295.50;4955202;29;20047;-76
2023/12/27 00:51:28;;;;;;;2.42;1.90;;;;;;;8.66;85.92;97296.34;4954565;29;20043;-75
2023/12/27 00:53:55;;;;;;;6.10;2.70;;;;;;;8.63;84.96;97292.25;4955235;29;20125;-76
2023/12/27 00:56:24;;;;;;;3.72;2.20;;;;;;;8.63;84.90;97294.84;4954270;28;20082;-75
2023/12/27 00:58:52;;;;;;;3.33;2.40;;;;;;;8.62;85.31;97295.84;4956409;28;20126;-75
2023/12/27 01:01:20;;;;;;;4.00;2.70;;;;;;;8.64;87.24;97299.09;4959839;29;20081;-76
2023/12/27 01:03:47;;;;;;;3.28;2.63;;;;;;;8.69;88.89;97314.25;4954654;28;20063;-76
2023/12/27 01:06:15;;;;;;;5.68;2.85;;;;;;;8.70;87.92;97307.25;4954756;28;20078;-75
2023/12/27 01:08:42;;;;;;;4.05;2.58;;;;;;;8.61;86.07;97307.19;4954626;28;20051;-75
2023/12/27 01:11:10;;;;;;;4.05;2.70;;;;;;;8.56;85.19;97301.63;4954233;28;20054;-75
2023/12/27 01:13:39;;;;;;;4.88;3.33;;;;;;;8.53;84.60;97296.75;4954801;28;20083;-76
2023/12/27 01:16:07;;;;;;;6.70;3.40;;;;;;;8.51;84.32;97297.88;4954636;29;20147;-76
2023/12/27 01:18:34;;;;;;;4.63;3.38;;;;;;;8.50;84.01;97296.22;4954546;29;20079;-75
2023/12/27 01:21:02;;;;;;;6.65;3.28;;;;;;;8.46;83.66;97295.69;4962994;28;20055;-75
2023/12/27 01:23:30;;;;;;;4.03;2.70;;;;;;;8.42;83.70;97287.41;4974233;29;20098;-75
2023/12/27 01:25:57;;;;;;;6.95;3.28;;;;;;;8.39;83.56;97294.66;4974992;29;20059;-75
2023/12/27 01:28:26;;;;;;;4.63;2.83;;;;;;;8.35;84.28;97314.94;4960699;28;20050;-76
2023/12/27 01:30:55;;;;;;;5.97;2.55;;;;;;;8.34;83.93;97304.69;4955513;29;20505;-76
2023/12/27 01:33:22;;;;;;;4.88;2.60;;;;;;;8.32;83.78;97293.63;4954779;28;20055;-75
2023/12/27 01:35:50;;;;;;;4.18;2.53;;;;;;;8.31;83.85;97292.81;4954741;28;20054;-75
2023/12/27 01:38:18;;;;;;;4.55;2.63;;;;;;;8.31;83.40;97292.81;4954560;28;20059;-75
2023/12/27 01:40:49;;;;;;;5.13;2.90;;;;;;;8.27;83.44;97290.66;4954758;29;20051;-75
2023/12/27 01:43:16;;;;;;;6.32;3.40;;;;;;;8.25;83.32;97299.41;4954351;28;20138;-75
2023/12/27 01:45:47;;;;;;;4.57;3.22;;;;;;;8.21;83.30;97298.06;4955013;29;20134;-76
2023/12/27 01:48:16;;;;;;;5.80;3.47;;;;;;;8.19;83.47;97302.59;4954425;29;20094;-75
2023/12/27 01:50:45;;;;;;;10.93;5.45;;;;;;;8.21;83.55;97300.69;4954405;29;20051;-76
2023/12/27 01:53:12;;;;;;;9.13;5.53;;;;;;;8.20;83.33;97286.06;4953944;29;20073;-76
2023/12/27 01:55:40;;;;;;;9.35;4.80;;;;;;;8.20;83.20;97285.25;4954402;29;20051;-75
2023/12/27 01:58:10;;;;;;;18.50;9.32;;;;;;;8.16;83.20;97282.13;4954475;28;20055;-75
2023/12/27 02:00:42;;;;;;;14.23;8.40;;;;;;;8.15;83.30;97283.06;4954380;29;20089;-76
2023/12/27 02:03:11;;;;;;;12.15;6.45;;;;;;;8.16;84.24;97284.72;4955919;28;20051;-76
2023/12/27 02:05:41;;;;;;;8.23;4.53;;;;;;;8.17;83.55;97278.53;4973474;29;20047;-75
2023/12/27 02:08:10;;;;;;;7.85;4.35;;;;;;;8.13;83.70;97281.59;4977725;28;20051;-75
2023/12/27 02:10:38;;;;;;;4.88;3.00;;;;;;;8.12;84.28;97283.38;4977097;29;20075;-75
2023/12/27 02:13:06;;;;;;;5.70;3.05;;;;;;;8.11;83.93;97286.13;4976810;29;20112;-75
2023/12/27 02:15:35;;;;;;;8.25;4.03;;;;;;;8.06;84.37;97283.97;4961916;28;20431;-75
2023/12/27 02:18:05;;;;;;;5.25;2.25;;;;;;;8.06;84.17;97289.19;4958650;28;20508;-76
2023/12/27 02:20:34;;;;;;;10.05;5.60;;;;;;;8.03;83.60;97279.09;4958304;29;20496;-75
2023/12/27 02:23:06;;;;;;;15.32;7.63;;;;;;;8.02;82.90;97280.88;4958042;28;20564;-75
2023/12/27 02:25:35;;;;;;;13.07;6.10;;;;;;;8.00;83.05;97279.38;4958345;28;20043;-76
2023/12/27 02:28:03;;;;;;;8.90;5.93;;;;;;;7.98;82.99;97278.69;4958462;29;20465;-75
2023/12/27 02:30:33;;;;;;;9.30;5.68;;;;;;;7.96;82.96;97272.84;4958215;28;20055;-75
2023/12/27 02:33:01;;;;;;;11.02;5.35;;;;;;;7.95;83.28;97274.63;4957613;28;20106;-75
2023/12/27 02:35:29;;;;;;;10.73;5.88;;;;;;;7.95;82.95;97271.22;4958006;28;20114;-75
2023/12/27 02:37:57;;;;;;;12.52;6.47;;;;;;;7.92;82.71;97276.72;4956532;28;20058;-76
2023/12/27 02:40:25;;;;;;;6.85;3.42;;;;;;;7.91;83.28;97277.66;4957561;28;20093;-75
2023/12/27 02:42:54;;;;;;;4.45;2.70;;;;;;;7.92;83.21;97274.13;4957273;29;20054;-76
2023/12/27 02:45:21;;;;;;;5.38;3.40;;;;;;;7.91;82.90;97272.47;4956148;28;20511;-76
2023/12/27 02:47:49;;;;;;;6.57;4.05;;;;;;;7.89;82.75;97266.59;4957394;28;20489;-76
2023/12/27 02:50:17;;;;;;;11.40;4.85;;;;;;;7.86;82.49;97267.72;4958086;29;20047;-76
2023/12/27 02:52:44;;;;;;;11.00;5.07;;;;;;;7.83;82.74;97266.25;4965483;28;20143;-75
2023/12/27 02:55:12;;;;;;;9.65;5.07;;;;;;;7.80;82.49;97253.53;4957021;28;20145;-76
2023/12/27 02:57:39;;;;;;;7.90;2.95;;;;;;;7.79;82.75;97258.91;4957303;29;20055;-75
2023/12/27 03:00:09;;;;;;;2.95;1.92;;;;;;;7.77;83.00;97263.44;4957152;28;20236;-76
2023/12/27 03:02:37;;;;;;;4.25;2.80;;;;;;;7.80;83.29;97257.91;4956772;29;20058;-75
2023/12/27 03:05:05;;;;;;;4.00;2.35;;;;;;;7.81;83.14;97257.78;4956840;29;20051;-75
2023/12/27 03:07:32;;;;;;;6.15;2.65;;;;;;;7.82;82.77;97256.00;4956694;28;20428;-75
2023/12/27 03:10:00;;;;;;;6.68;2.78;;;;;;;7.81;83.28;97250.00;4956657;29;20063;-76
2023/12/27 03:12:27;;;;;;;4.93;3.20;;;;;;;7.85;84.25;97258.31;4956286;29;20051;-75
2023/12/27 03:14:55;;;;;;;8.65;3.63;;;;;;;7.84;84.02;97252.28;4956442;28;20055;-76
2023/12/27 03:17:24;;;;;;;2.92;2.00;;;;;;;7.84;83.49;97252.28;4956818;29;20424;-75
2023/12/27 03:19:51;;;;;;;4.82;3.17;;;;;;;7.83;83.06;97257.66;4955896;28;20189;-75
2023/12/27 03:22:19;;;;;;;6.75;2.65;;;;;;;7.82;83.82;97256.00;4956262;29;20062;-76
2023/12/27 03:24:46;;;;;;;4.97;2.35;;;;;;;7.82;84.78;97256.81;4956245;28;20059;-75
2023/12/27 03:27:14;;;;;;;5.97;2.72;;;;;;;7.83;84.99;97263.66;4956732;29;20134;-75
2023/12/27 03:29:41;;;;;;;4.05;1.83;;;;;;;7.85;84.62;97258.31;4956728;29;20319;-76
2023/12/27 03:32:09;;;;;;;4.07;2.25;;;;;;;7.83;83.91;97263.66;4955947;29;20496;-75
2023/12/27 03:34:38;;;;;;;3.67;2.22;;;;;;;7.83;83.64;97266.25;4956212;29;20073;-76
2023/12/27 03:37:06;;;;;;;2.70;2.50;;;;;;;7.84;84.63;97254.88;4956071;28;20055;-75
2023/12/27 03:39:33;;;;;;;3.55;2.05;;;;;;;7.87;85.72;97260.75;4956633;29;20118;-76
2023/12/27 03:42:01;;;;;;;3.15;2.30;;;;;;;7.88;85.19;97254.59;4956148;28;20047;-76
2023/12/27 03:44:29;;;;;;;5.07;2.47;;;;;;;7.87;84.28;97260.75;4956091;28;20049;-75
2023/12/27 03:46:57;;;;;;;3.97;2.60;;;;;;;7.84;83.76;97254.88;4955872;29;20579;-76
2023/12/27 03:49:24;;;;;;;5.13;3.03;;;;;;;7.81;83.41;97250.00;4955685;28;20089;-76
2023/12/27 03:51:54;;;;;;;6.05;3.38;;;;;;;7.79;83.33;97241.53;4955677;28;20154;-76
2023/12/27 03:54:21;;;;;;;5.20;2.88;;;;;;;7.76;83.35;97239.25;4955635;28;20138;-77
2023/12/27 03:56:49;;;;;;;4.97;3.75;;;;;;;7.75;83.25;97234.19;4955956;29;20058;-76
2023/12/27 03:59:16;;;;;;;6.80;4.32;;;;;;;7.72;83.18;97230.09;4955833;29;20150;-76
2023/12/27 04:01:44;;;;;;;4.20;3.75;;;;;;;7.70;83.28;97236.41;4955361;28;20058;-75
2023/12/27 04:04:13;;;;;;;7.10;4.47;;;;;;;7.68;83.44;97236.56;4955348;29;20134;-75
2023/12/27 04:06:41;;;;;;;5.88;4.57;;;;;;;7.69;83.57;97230.38;4955497;29;20063;-75
2023/12/27 04:09:10;;;;;;;5.75;4.40;;;;;;;7.69;84.01;97230.38;4955880;29;20137;-75
2023/12/27 04:11:43;;;;;;;8.65;5.80;;;;;;;7.74;86.87;97235.13;4955374;28;20106;-76
2023/12/27 04:14:11;;;;;;;6.00;4.38;;;;;;;7.76;86.19;97234.03;4955693;28;20061;-75
2023/12/27 04:16:38;;;;;;;5.63;4.32;;;;;;;7.79;85.54;97228.53;4955430;28;20130;-75
2023/12/27 04:19:06;;;;;;;7.10;4.80;;;;;;;7.80;85.70;97219.78;4955410;29;20497;-76
2023/12/27 04:21:34;;;;;;;8.60;6.10;;;;;;;7.82;86.62;97217.84;4955083;28;20138;-76
2023/12/27 04:24:02;;;;;;;6.82;4.50;;;;;;;7.83;85.96;97219.50;4955002;29;20130;-75
2023/12/27 04:26:30;;;;;;;5.18;4.22;;;;;;;7.82;84.96;97214.44;4955236;28;20527;-75
2023/12/27 04:28:58;;;;;;;6.43;4.85;;;;;;;7.81;84.22;97218.00;4955132;29;20097;-76
2023/12/27 04:31:25;;;;;;;7.25;5.80;;;;;;;7.81;85.00;97218.00;4954004;28;20047;-76
2023/12/27 04:33:53;;;;;;;7.47;5.20;;;;;;;7.82;84.75;97225.63;4955047;29;20043;-75
2023/12/27 04:36:21;;;;;;;8.70;5.28;;;;;;;7.80;84.23;97221.56;4955111;28;20059;-74
2023/12/27 04:38:48;;;;;;;7.55;5.72;;;;;;;7.82;84.42;97220.44;4954953;28;20055;-75
2023/12/27 04:41:17;;;;;;;5.75;4.95;;;;;;;7.79;84.02;97210.38;4954610;29;20047;-75
2023/12/27 04:43:46;;;;;;;8.23;5.15;;;;;;;7.78;83.51;97213.94;4954624;28;20047;-76
2023/12/27 04:46:14;;;;;;;7.78;5.65;;;;;;;7.80;84.48;97221.56;4954693;29;20091;-75
2023/12/27 04:48:41;;;;;;;7.35;5.93;;;;;;;7.81;85.50;97218.81;4954688;28;20058;-75
2023/12/27 04:51:09;;;;;;;7.18;5.70;;;;;;;7.82;84.96;97215.25;4954331;29;20051;-74
2023/12/27 04:53:37;;;;;;;5.75;4.75;;;;;;;7.82;84.10;97214.44;4954693;29;20106;-76
2023/12/27 04:56:05;;;;;;;6.70;4.90;;;;;;;7.81;83.72;97216.22;4954701;28;20410;-76
2023/12/27 04:58:35;;;;;;;8.60;5.40;;;;;;;7.80;83.66;97217.16;4955156;28;20054;-75
2023/12/27 05:01:06;;;;;;;7.07;4.95;;;;;;;7.78;83.28;97219.13;4954399;28;20047;-75
2023/12/27 05:03:34;;;;;;;5.75;5.03;;;;;;;7.80;83.62;97211.97;4955043;28;20050;-76
2023/12/27 05:06:02;;;;;;;5.78;5.18;;;;;;;7.82;83.33;97210.06;4954730;29;20058;-76
2023/12/27 05:08:30;;;;;;;6.32;4.45;;;;;;;7.82;83.38;97215.25;4954552;29;20047;-76
2023/12/27 05:10:58;;;;;;;7.20;4.78;;;;;;;7.84;83.25;97218.50;4954860;28;20057;-75
2023/12/27 05:13:26;;;;;;;7.78;5.30;;;;;;;7.83;83.00;97213.50;4954398;28;20055;-75
2023/12/27 05:15:53;;;;;;;6.38;5.60;;;;;;;7.83;82.88;97210.88;4954630;28;20490;-75
2023/12/27 05:18:22;;;;;;;6.05;4.75;;;;;;;7.84;83.02;97215.09;4954622;28;20055;-76
2023/12/27 05:20:50;;;;;;;7.90;5.03;;;;;;;7.84;82.90;97212.50;4963956;28;20527;-75
2023/12/27 05:23:17;;;;;;;5.57;4.78;;;;;;;7.83;82.65;97201.31;4987379;23;20043;-76
2023/12/27 05:25:45;;;;;;;8.23;5.10;;;;;;;7.83;82.54;97205.69;4974892;28;20070;-76
2023/12/27 05:28:12;;;;;;;5.65;4.53;;;;;;;7.79;82.48;97207.75;4975197;28;20472;-76
2023/12/27 05:30:40;;;;;;;6.70;5.20;;;;;;;7.79;82.56;97209.56;4974915;28;20050;-76
2023/12/27 05:33:08;;;;;;;5.65;5.10;;;;;;;7.81;83.02;97215.41;4974511;28;20055;-76
2023/12/27 05:35:37;;;;;;;7.47;5.45;;;;;;;7.81;83.99;97211.03;4974297;28;20042;-76
2023/12/27 05:38:04;;;;;;;10.07;5.93;;;;;;;7.83;84.22;97214.28;4974668;28;20492;-76
2023/12/27 05:40:32;;;;;;;6.90;5.93;;;;;;;7.82;84.32;97211.84;4974432;28;20586;-76
2023/12/27 05:42:59;;;;;;;6.60;5.10;;;;;;;7.80;83.71;97219.78;4977919;28;20109;-76
2023/12/27 05:45:27;;;;;;;10.48;5.72;;;;;;;7.81;84.01;97224.03;4978434;28;20081;-76
2023/12/27 05:47:55;;;;;;;7.07;5.78;;;;;;;7.79;84.00;97218.16;4977868;28;20090;-76
2023/12/27 05:50:23;;;;;;;6.75;5.63;;;;;;;7.78;84.15;97221.72;4978487;28;20082;-76
2023/12/27 05:52:52;;;;;;;9.38;6.38;;;;;;;7.80;84.47;97216.38;4978009;28;20137;-76
2023/12/27 05:55:19;;;;;;;7.88;6.00;;;;;;;7.78;83.77;97221.72;4977511;28;20134;-76
2023/12/27 05:57:47;;;;;;;12.00;7.38;;;;;;;7.76;83.97;97225.41;4977817;28;20055;-76
2023/12/27 06:00:16;;;;;;;10.48;7.18;;;;;;;7.73;84.00;97221.34;4977025;28;20051;-76
2023/12/27 06:02:44;;;;;;;11.63;7.57;;;;;;;7.72;84.12;97224.91;4977483;28;20058;-76
2023/12/27 06:05:11;;;;;;;12.88;7.55;;;;;;;7.72;84.16;97219.72;4978323;28;20043;-76
2023/12/27 06:07:40;;;;;;;10.57;6.75;;;;;;;7.68;82.89;97214.97;4977586;28;20058;-76
2023/12/27 06:10:09;;;;;;;8.48;6.85;;;;;;;7.63;83.80;97215.38;4978017;28;20053;-76
2023/12/27 06:12:37;;;;;;;12.75;7.35;;;;;;;7.61;84.27;97212.97;4976480;28;20133;-76
2023/12/27 06:15:06;;;;;;;10.73;7.65;;;;;;;7.60;84.62;97205.31;4977086;28;20106;-76
2023/12/27 06:17:33;;;;;;;11.45;6.47;;;;;;;7.55;83.46;97197.97;4976651;28;20094;-76
2023/12/27 06:20:01;;;;;;;11.60;6.95;;;;;;;7.51;82.55;97201.00;4977360;28;20057;-76
2023/12/27 06:22:29;;;;;;;14.30;7.10;;;;;;;7.46;82.24;97203.25;4976613;28;20102;-76
2023/12/27 06:24:56;;;;;;;13.45;7.53;;;;;;;7.43;83.51;97199.97;4976767;28;20134;-76
2023/12/27 06:27:25;;;;;;;12.52;7.43;;;;;;;7.41;82.68;97199.31;4977184;28;20058;-76
2023/12/27 06:29:54;;;;;;;14.23;7.75;;;;;;;7.37;82.24;97205.75;4978403;28;20508;-76
2023/12/27 06:32:22;;;;;;;16.33;8.20;;;;;;;7.37;82.10;97199.75;4977892;28;20074;-76
2023/12/27 06:34:49;;;;;;;17.30;7.50;;;;;;;7.35;81.45;97192.09;4977301;28;20050;-76
2023/12/27 06:37:17;;;;;;;18.42;7.15;;;;;;;7.33;81.77;97191.44;4977397;28;20050;-76
2023/12/27 06:39:45;;;;;;;14.10;6.50;;;;;;;7.32;83.36;97187.19;4977174;28;20051;-76
2023/12/27 06:42:12;;;;;;;14.60;6.38;;;;;;;7.32;82.90;97181.19;4976350;28;20117;-76
2023/12/27 06:44:41;;;;;;;15.70;7.40;;;;;;;7.28;81.37;97183.28;4976868;28;20500;-76
2023/12/27 06:47:08;;;;;;;18.83;9.55;;;;;;;7.29;82.82;97181.50;4977083;28;20053;-76
2023/12/27 06:49:35;;;;;;;12.45;6.72;;;;;;;7.27;81.76;97184.22;4977118;28;20050;-76
2023/12/27 06:52:03;;;;;;;9.32;5.78;;;;;;;7.25;81.55;97180.97;4976243;28;20109;-76
2023/12/27 06:54:31;;;;;;;12.02;5.18;;;;;;;7.22;80.75;97183.84;4975211;28;20142;-76
2023/12/27 06:56:59;;;;;;;8.90;4.90;;;;;;;7.16;80.05;97181.84;4976192;28;20051;-76
2023/12/27 06:59:27;;;;;;;9.57;6.00;;;;;;;7.11;79.91;97173.69;4976319;28;20054;-76
2023/12/27 07:01:56;;;;;;;8.55;5.15;;;;;;;7.05;79.36;97174.25;4975753;28;20484;-76
2023/12/27 07:04:23;;;;;;;9.75;6.88;;;;;;;7.02;81.04;97177.97;4976075;28;20145;-75
2023/12/27 07:06:51;;;;;;;7.68;5.07;;;;;;;7.01;80.85;97184.91;4976838;28;20146;-76
2023/12/27 07:09:20;;;;;;;7.45;5.15;;;;;;;7.03;81.47;97183.97;4976099;28;20660;-76
2023/12/27 07:11:47;;;;;;;11.18;6.20;;;;;;;7.05;82.18;97176.84;4976197;28;20054;-75
2023/12/27 07:14:15;;;;;;;6.40;4.60;;;;;;;7.06;82.04;97173.28;4976049;28;20129;-76
2023/12/27 07:16:44;;;;;;;10.73;5.63;;;;;;;7.06;82.76;97181.06;4976179;28;20093;-76
2023/12/27 07:19:13;;;;;;;7.32;5.05;;;;;;;7.08;82.38;97195.53;4975969;28;20057;-76
2023/12/27 07:21:40;;;;;;;9.75;5.45;;;;;;;7.09;82.84;97201.56;4975734;28;20055;-75
2023/12/27 07:24:08;;;;;;;9.32;4.85;;;;;;;7.15;83.01;97190.56;4975889;28;20077;-76
2023/12/27 07:26:36;;;;;;;10.20;5.63;;;;;;;7.17;82.75;97192.09;4975986;28;20130;-76
2023/12/27 07:29:04;;;;;;;8.93;5.63;;;;;;;7.20;83.84;97203.94;4976024;28;20137;-75
2023/12/27 07:31:31;;;;;;;7.75;4.88;;;;;;;7.20;83.53;97209.13;4976469;28;20050;-76
2023/12/27 07:33:59;;;;;;;10.90;5.28;;;;;;;7.19;82.89;97208.31;4977492;28;20070;-76
2023/12/27 07:36:28;;;;;;;8.77;5.28;;;;;;;7.22;85.04;97207.22;4993006;28;20059;-78
2023/12/27 07:38:56;;;;;;;6.03;5.30;;;;;;;7.26;84.33;97210.31;4997243;28;20039;-78
2023/12/27 07:41:23;;;;;;;7.78;4.80;;;;;;;7.26;83.60;97218.94;4980314;28;20051;-77
2023/12/27 07:43:51;;;;;;;6.72;4.13;;;;;;;7.24;81.51;97220.84;4987293;28;20078;-77
2023/12/27 07:46:18;;;;;;;9.68;5.47;;;;;;;7.17;80.47;97220.63;4970357;28;20500;-78
2023/12/27 07:48:46;;;;;;;6.88;4.47;;;;;;;7.15;81.41;97221.69;4958435;28;20089;-77
2023/12/27 07:51:13;;;;;;;10.82;5.20;;;;;;;7.13;81.18;97218.47;4960057;28;20085;-77
2023/12/27 07:53:42;;;;;;;8.68;5.40;;;;;;;7.12;81.73;97209.03;4973520;28;20051;-76
2023/12/27 07:56:12;;;;;;;9.50;5.60;;;;;;;7.08;80.42;97212.88;4957037;29;20061;-77
2023/12/27 07:58:39;;;;;;;9.65;5.00;;;;;;;7.01;80.70;97210.03;4958834;29;20082;-77
2023/12/27 08:01:07;;;;;;;12.10;4.97;;;;;;;6.98;80.61;97210.34;4965282;28;20482;-78
2023/12/27 08:03:34;;;;;;;11.85;5.38;;;;;;;6.95;81.04;97210.63;4976318;28;20086;-78
2023/12/27 08:06:02;;;;;;;14.88;5.90;;;;;;;6.93;81.35;97218.56;4957985;28;20094;-77
2023/12/27 08:08:30;;;;;;;10.65;6.00;;;;;;;6.90;81.70;97215.41;4959902;28;20520;-76
2023/12/27 08:10:59;;;;;;;8.85;5.63;;;;;;;6.89;82.25;97214.63;4974350;28;20134;-76
2023/12/27 08:13:26;;;;;;;10.73;5.75;;;;;;;6.89;82.20;97217.22;4974730;28;20078;-77
2023/12/27 08:15:54;;;;;;;11.55;5.32;;;;;;;6.87;80.94;97221.72;4962181;28;20603;-76
2023/12/27 08:18:21;;;;;;;13.73;5.05;;;;;;;6.87;80.57;97221.72;4974752;28;20138;-77
2023/12/27 08:20:49;;;;;;;8.40;4.35;;;;;;;6.81;79.65;97222.28;4974945;28;20113;-76
2023/12/27 08:23:17;;;;;;;10.48;5.13;;;;;;;6.78;79.64;97220.00;4974163;28;20050;-76
2023/12/27 08:25:44;;;;;;;11.45;4.60;;;;;;;6.76;79.49;97227.91;4970868;28;20130;-76
2023/12/27 08:28:14;;;;;;;7.78;4.80;;;;;;;6.74;79.61;97229.81;4975603;28;20050;-77
2023/12/27 08:30:42;;;;;;;7.93;4.78;;;;;;;6.73;79.44;97232.53;4974522;28;20050;-77
2023/12/27 08:33:09;;;;;;;7.28;4.45;;;;;;;6.74;79.00;97229.00;4974493;28;20587;-77
2023/12/27 08:35:37;;;;;;;13.80;5.18;;;;;;;6.74;78.98;97226.41;4959635;28;20047;-77
2023/12/27 08:38:06;;;;;;;7.40;4.93;;;;;;;6.73;79.01;97216.97;4974158;28;20065;-78
2023/12/27 08:40:33;;;;;;;11.95;4.82;;;;;;;6.74;78.66;97208.25;4974870;28;20138;-77
2023/12/27 08:43:01;;;;;;;8.85;4.10;;;;;;;6.77;78.39;97202.78;4974184;28;20126;-78
2023/12/27 08:45:30;;;;;;;6.45;3.90;;;;;;;6.80;78.22;97197.31;4962312;28;20406;-76
2023/12/27 08:47:58;;;;;;;8.63;4.50;;;;;;;6.87;78.41;97193.19;4955398;28;20051;-76
2023/12/27 08:50:26;;;;;;;7.63;4.25;;;;;;;6.95;78.60;97201.06;4962306;28;20094;-77
2023/12/27 08:52:53;;;;;;;6.80;4.32;;;;;;;7.04;78.59;97209.78;4974187;28;20113;-77
2023/12/27 08:55:21;;;;;;;7.13;3.88;;;;;;;7.12;78.82;97206.44;4962577;28;20053;-76
2023/12/27 08:57:48;;;;;;;7.82;3.90;;;;;;;7.21;78.41;97210.75;4955149;28;20077;-77
2023/12/27 09:00:18;;;;;;;4.95;3.97;;;;;;;7.32;77.79;97212.34;4959995;28;20046;-77
2023/12/27 09:02:48;;;;;;;6.90;3.63;;;;;;;7.39;76.65;97210.78;4954874;28;20094;-77
2023/12/27 09:05:15;;;;;;;8.60;4.47;;;;;;;7.43;77.00;97210.38;4955097;29;20117;-77
2023/12/27 09:07:43;;;;;;;8.13;3.72;;;;;;;7.50;76.87;97207.16;4954848;29;20447;-77
2023/12/27 09:10:11;;;;;;;7.45;3.67;;;;;;;7.55;76.42;97203.16;4956156;28;20094;-77
2023/12/27 09:12:39;;;;;;;8.27;4.38;;;;;;;7.59;75.69;97199.31;4972421;28;20078;-77
2023/12/27 09:15:08;;;;;;;8.32;4.65;;;;;;;7.62;75.79;97209.38;4971934;28;20050;-76
2023/12/27 09:17:36;;;;;;;9.20;3.90;;;;;;;7.68;75.44;97197.59;4954495;28;20085;-77
2023/12/27 09:20:07;;;;;;;7.15;4.15;;;;;;;7.72;74.93;97196.34;4954426;29;20051;-77
2023/12/27 09:22:36;;;;;;;8.87;4.17;;;;;;;7.78;75.99;97193.16;4968317;28;20051;-77
2023/12/27 09:25:05;;;;;;;10.73;4.93;;;;;;;7.82;75.60;97181.47;4975148;28;20288;-77
2023/12/27 09:27:33;;;;;;;7.55;4.78;;;;;;;7.90;77.53;97177.34;4968476;28;20047;-77
2023/12/27 09:30:00;;;;;;;13.57;8.02;;;;;;;7.98;76.52;97178.22;4963990;28;20432;-77
2023/12/27 09:32:28;;;;;;;6.55;4.35;;;;;;;8.05;75.31;97175.81;4954952;28;20508;-77
2023/12/27 09:34:56;;;;;;;6.90;5.18;;;;;;;8.11;74.46;97156.19;4956799;28;20042;-77
2023/12/27 09:37:25;;;;;;;12.45;6.63;;;;;;;8.16;73.15;97152.19;4973698;28;20134;-76
2023/12/27 09:39:52;;;;;;;8.75;5.18;;;;;;;8.22;74.53;97138.59;4970151;28;20153;-76
2023/12/27 09:42:20;;;;;;;6.13;4.13;;;;;;;8.28;75.32;97131.13;4957793;28;20137;-76
2023/12/27 09:44:50;;;;;;;7.50;4.38;;;;;;;8.31;73.90;97131.66;4974307;28;20142;-77
2023/12/27 09:47:18;;;;;;;8.93;4.32;;;;;;;8.34;73.54;97127.94;4973777;28;20074;-77
2023/12/27 09:49:46;;;;;;;7.40;3.65;;;;;;;8.34;74.53;97120.94;4956693;28;20051;-76
2023/12/27 09:52:15;;;;;;;8.85;3.97;;;;;;;8.33;75.02;97123.69;4953901;28;20047;-79
2023/12/27 09:54:44;;;;;;;8.77;3.85;;;;;;;8.34;72.94;97130.53;4962471;28;20057;-78
2023/12/27 09:57:12;;;;;;;9.35;3.85;;;;;;;8.32;72.55;97142.84;4964274;28;20121;-77
2023/12/27 09:59:44;;;;;;;4.85;3.65;;;;;;;8.28;71.31;97144.13;4965398;28;20058;-77
2023/12/27 10:02:16;;;;;;;9.07;4.70;;;;;;;8.23;71.94;97150.59;4969643;28;20427;-77
2023/12/27 10:04:55;;;;;;;13.82;5.88;;;;;;;8.24;70.33;97138.41;4973704;28;20047;-78
2023/12/27 10:07:26;;;;;;;8.95;5.68;;;;;;;8.20;70.38;97132.72;4961946;28;20051;-77
2023/12/27 10:09:56;;;;;;;8.07;4.55;;;;;;;8.19;70.64;97133.69;4954630;29;20097;-78
2023/12/27 10:12:40;;;;;;;10.68;5.13;;;;;;;8.20;70.49;97130.13;4954303;28;20047;-77
2023/12/27 10:15:08;;;;;;;9.32;4.57;;;;;;;8.22;70.09;97132.56;4956673;28;20129;-77
2023/12/27 10:17:36;;;;;;;10.70;4.65;;;;;;;8.26;70.47;97128.69;4954596;29;20134;-77
2023/12/27 10:20:06;;;;;;;9.30;4.88;;;;;;;8.33;70.89;97121.91;4954245;28;20055;-77
2023/12/27 10:22:34;;;;;;;11.75;4.35;;;;;;;8.42;69.80;97121.00;4954797;28;20055;-76
2023/12/27 10:25:08;;;;;;;8.57;3.97;;;;;;;8.52;69.01;97126.09;4953787;29;20568;-78
2023/12/27 10:27:35;;;;;;;7.93;3.95;;;;;;;8.59;68.79;97111.50;4956112;28;20054;-79
2023/12/27 10:30:03;;;;;;;6.95;3.95;;;;;;;8.69;70.63;97107.97;4959628;28;20176;-78
2023/12/27 10:32:31;;;;;;;17.05;9.63;;;;;;;8.75;69.59;97107.34;4957089;29;20058;-79
2023/12/27 10:34:59;;;;;;;9.70;5.18;;;;;;;8.78;69.01;97096.59;4957534;29;20043;-78
2023/12/27 10:37:27;;;;;;;8.43;5.20;;;;;;;8.81;68.54;97093.69;4956954;28;20054;-78
2023/12/27 10:39:56;;;;;;;6.88;3.90;;;;;;;8.84;67.83;97090.78;4975068;28;20051;-77
2023/12/27 10:42:28;;;;;;;12.63;4.55;;;;;;;8.91;66.71;97094.38;4960336;28;20126;-76
2023/12/27 10:44:55;;;;;;;8.48;4.30;;;;;;;8.99;69.54;97096.19;4976507;28;20391;-77
2023/12/27 10:47:26;;;;;;;3.75;3.35;;;;;;;9.06;67.85;97092.78;4976363;28;20050;-78
2023/12/27 10:49:54;;;;;;;13.27;7.63;;;;;;;9.14;68.71;97091.16;4977008;28;20138;-77
2023/12/27 10:52:21;;;;;;;8.95;5.82;;;;;;;9.23;70.16;97092.81;4974570;28;20106;-77
2023/12/27 10:54:53;;;;;;;6.20;2.90;;;;;;;9.30;66.84;97088.56;4976344;28;20149;-78
2023/12/27 10:57:22;;;;;;;6.45;3.70;;;;;;;9.39;66.85;97089.41;4964005;28;20047;-77
2023/12/27 10:59:54;;;;;;;3.13;2.75;;;;;;;9.48;67.82;97078.00;4956771;29;20146;-77
2023/12/27 11:02:22;;;;;;;4.03;3.10;;;;;;;9.62;67.78;97066.94;4963346;28;20134;-77
2023/12/27 11:04:51;;;;;;;6.95;3.00;;;;;;;9.77;66.15;97066.25;4970497;28;20055;-77
2023/12/27 11:07:20;;;;;;;6.10;3.20;;;;;;;9.89;65.76;97054.53;4975990;28;20074;-76
2023/12/27 11:09:49;;;;;;;6.82;3.03;;;;;;;10.00;64.79;97053.38;4975830;28;20142;-76
2023/12/27 11:12:20;;;;;;;5.88;3.00;;;;;;;10.11;63.51;97042.56;4974361;28;20133;-77
2023/12/27 11:14:49;;;;;;;4.50;3.35;;;;;;;10.16;62.79;97035.06;4976727;28;20055;-77
2023/12/27 11:17:20;;;;;;;6.28;3.25;;;;;;;10.14;62.78;97023.97;4958112;28;20135;-77
2023/12/27 11:19:50;;;;;;;3.90;2.90;;;;;;;10.14;61.59;97018.78;4956752;28;20043;-78
2023/12/27 11:22:17;;;;;;;3.95;2.30;;;;;;;10.19;63.41;97010.44;4957345;28;20145;-78
2023/12/27 11:24:45;;;;;;;4.05;2.70;;;;;;;10.24;60.56;96995.94;4956441;28;20103;-77
2023/12/27 11:27:18;;;;;;;3.78;2.72;;;;;;;10.27;62.91;97003.41;4949071;28;20101;-78
2023/12/27 11:29:45;;;;;;;;;;;;;;;10.37;62.38;97005.03;4962238;28;20051;-80
2023/12/27 11:32:13;;;;;;;3.90;2.65;;;;;;;10.46;63.65;97009.22;4956958;28;19928;-78
2023/12/27 11:34:42;;;;;;;4.47;2.92;;;;;;;10.52;60.64;97008.56;4956290;28;20534;-77
2023/12/27 11:37:14;;;;;;;7.05;2.80;;;;;;;10.66;61.98;97007.81;4956436;28;20043;-77
2023/12/27 11:39:41;;;;;;;5.32;2.78;;;;;;;10.84;64.20;97012.75;4956293;28;20063;-77
2023/12/27 11:42:09;;;;;;;4.28;2.80;;;;;;;10.97;59.56;96995.72;4972705;28;20042;-78
2023/12/27 11:44:38;;;;;;;6.30;3.50;;;;;;;11.05;57.58;96988.63;4983355;28;20054;-78